Time;durP1;ratioP1;P1;durP2;ratioP2;P2;SDS_P1;SDS_P2;PMS_P1;PMS_P2;Temp;Humidity;BMP_temperature;BMP_pressure;BME280_temperature;BME280_humidity;BME280_pressure;Samples;Min_cycle;Max_cycle;Signal;HPM_P1;HPM_P2
2023/08/01 00:04:00;;;;;;;;;;;21.60;66.70;;;;;;10331161;28;92304;-63
2023/08/01 00:09:02;;;;;;;;;;;21.50;66.70;;;;;;10312386;28;93473;-63
2023/08/01 00:14:04;;;;;;;;;;;21.50;66.80;;;;;;10330491;28;94517;-63
2023/08/01 00:19:05;;;;;;;;;;;21.50;66.80;;;;;;10327917;28;96816;-63
2023/08/01 00:24:08;;;;;;;;;;;21.50;66.80;;;;;;10329587;28;93898;-63
2023/08/01 00:29:09;;;;;;;;;;;21.50;66.70;;;;;;10330176;28;94127;-63
2023/08/01 00:34:11;;;;;;;;;;;21.50;66.80;;;;;;10330110;28;93502;-63
2023/08/01 00:39:13;;;;;;;;;;;21.50;66.80;;;;;;10329360;28;93826;-63
2023/08/01 00:44:15;;;;;;;;;;;21.50;66.80;;;;;;10311876;28;92636;-64
2023/08/01 00:49:17;;;;;;;;;;;21.50;66.80;;;;;;10328561;28;94419;-63
2023/08/01 00:54:19;;;;;;;;;;;21.40;66.80;;;;;;10296325;28;92772;-63
2023/08/01 00:59:21;;;;;;;;;;;21.40;66.70;;;;;;10335379;28;94513;-64
2023/08/01 01:04:23;;;;;;;;;;;21.40;66.70;;;;;;10317649;28;94389;-64
2023/08/01 01:09:27;;;;;;;;;;;21.40;66.70;;;;;;10316702;28;96894;-63
2023/08/01 01:14:29;;;;;;;;;;;21.40;66.70;;;;;;10319613;28;94018;-64
2023/08/01 01:19:31;;;;;;;;;;;21.40;66.70;;;;;;10335758;28;93485;-63
2023/08/01 01:24:33;;;;;;;;;;;21.40;66.60;;;;;;10318003;28;93503;-63
2023/08/01 01:29:35;;;;;;;;;;;21.40;66.60;;;;;;10317849;28;94428;-64
2023/08/01 01:34:37;;;;;;;;;;;21.40;66.60;;;;;;10317478;28;93431;-63
2023/08/01 01:39:39;;;;;;;;;;;21.40;66.60;;;;;;10334890;28;94485;-64
2023/08/01 01:44:41;;;;;;;;;;;21.40;66.50;;;;;;10335972;28;93632;-63
2023/08/01 01:49:42;;;;;;;;;;;21.40;66.40;;;;;;10334666;28;94480;-63
2023/08/01 01:54:44;;;;;;;;;;;21.40;66.40;;;;;;10333847;28;93093;-63
2023/08/01 01:59:46;;;;;;;;;;;21.40;67.40;;;;;;10331885;28;95826;-63
2023/08/01 02:04:50;;;;;;;;;;;21.40;66.30;;;;;;10334021;28;93507;-63
2023/08/01 02:09:53;;;;;;;;;;;21.40;66.30;;;;;;10332753;28;112637;-63
2023/08/01 02:14:55;;;;;;;;;;;21.40;66.20;;;;;;10334422;28;94375;-64
2023/08/01 02:19:57;;;;;;;;;;;21.40;66.20;;;;;;10333808;28;93251;-63
2023/08/01 02:24:59;;;;;;;;;;;21.40;66.10;;;;;;10298999;28;93493;-63
2023/08/01 02:30:01;;;;;;;;;;;21.40;66.10;;;;;;10333709;28;93264;-64
2023/08/01 02:35:03;;;;;;;;;;;21.40;66.00;;;;;;10333621;28;92707;-63
2023/08/01 02:40:08;;;;;;;;;;;21.40;65.90;;;;;;10315154;28;93418;-63
2023/08/01 02:45:10;;;;;;;;;;;21.40;65.90;;;;;;10332764;28;93615;-63
2023/08/01 02:50:12;;;;;;;;;;;21.40;65.90;;;;;;10329911;28;95903;-63
2023/08/01 02:55:13;;;;;;;;;;;21.50;66.80;;;;;;10331972;28;94631;-63
2023/08/01 03:00:17;;;;;;;;;;;21.50;65.80;;;;;;10314412;28;94476;-63
2023/08/01 03:05:20;;;;;;;;;;;21.50;65.70;;;;;;10314189;28;93549;-63
2023/08/01 03:10:22;;;;;;;;;;;21.50;65.70;;;;;;10332203;28;94037;-64
2023/08/01 03:15:31;;;;;;;;;;;21.50;65.60;;;;;;10314705;28;94508;-64
2023/08/01 03:20:33;;;;;;;;;;;21.50;65.60;;;;;;10331298;28;93455;-63
2023/08/01 03:25:35;;;;;;;;;;;21.50;65.60;;;;;;10314533;28;93660;-63
2023/08/01 03:30:37;;;;;;;;;;;21.50;65.50;;;;;;10331053;28;93434;-63
2023/08/01 03:35:38;;;;;;;;;;;21.50;65.50;;;;;;10313963;28;94567;-63
2023/08/01 03:40:40;;;;;;;;;;;21.50;65.50;;;;;;10310548;28;96467;-64
2023/08/01 03:45:42;;;;;;;;;;;21.50;65.50;;;;;;10330659;28;93618;-63
2023/08/01 03:50:44;;;;;;;;;;;21.50;65.40;;;;;;10331595;28;93846;-63
2023/08/01 03:55:46;;;;;;;;;;;21.40;65.40;;;;;;10330648;28;94344;-64
2023/08/01 04:00:48;;;;;;;;;;;21.40;65.40;;;;;;10331032;28;94448;-63
2023/08/01 04:05:50;;;;;;;;;;;21.40;65.40;;;;;;10329833;28;93476;-63
2023/08/01 04:10:51;;;;;;;;;;;21.40;65.50;;;;;;10312014;28;92561;-63
2023/08/01 04:15:53;;;;;;;;;;;21.40;65.50;;;;;;10330087;28;93677;-63
2023/08/01 04:20:55;;;;;;;;;;;21.40;65.40;;;;;;10311232;28;94194;-63
2023/08/01 04:25:58;;;;;;;;;;;21.40;65.50;;;;;;10330285;28;94803;-63
2023/08/01 04:31:00;;;;;;;;;;;21.40;65.50;;;;;;10330477;28;95855;-63
2023/08/01 04:36:01;;;;;;;;;;;21.40;65.50;;;;;;10336770;28;93301;-63
2023/08/01 04:41:03;;;;;;;;;;;21.40;65.50;;;;;;10319890;28;94433;-63
2023/08/01 04:51:25;;;;;;;;;;;21.30;65.50;;;;;;10362639;22;94316;-63
2023/08/01 04:56:27;;;;;;;;;;;21.30;65.60;;;;;;10319374;28;92887;-63
2023/08/01 05:01:29;;;;;;;;;;;21.30;65.60;;;;;;10336707;28;94461;-63
2023/08/01 05:06:30;;;;;;;;;;;21.30;65.70;;;;;;10338324;28;93675;-63
2023/08/01 05:11:32;;;;;;;;;;;21.30;65.70;;;;;;10336603;28;94960;-63
2023/08/01 05:16:34;;;;;;;;;;;21.30;65.70;;;;;;10336480;28;94873;-63
2023/08/01 05:21:36;;;;;;;;;;;21.20;65.60;;;;;;10334395;28;95782;-63
2023/08/01 05:26:38;;;;;;;;;;;21.30;65.60;;;;;;10335907;28;94361;-63
2023/08/01 05:31:40;;;;;;;;;;;21.20;65.60;;;;;;10334459;28;93441;-63
2023/08/01 05:36:42;;;;;;;;;;;21.20;65.60;;;;;;10335486;28;93493;-63
2023/08/01 05:41:44;;;;;;;;;;;21.20;65.70;;;;;;10334792;28;94567;-63
2023/08/01 05:46:46;;;;;;;;;;;21.20;65.70;;;;;;10334500;28;94505;-64
2023/08/01 05:51:48;;;;;;;;;;;21.20;65.70;;;;;;10298662;28;93502;-63
2023/08/01 05:56:49;;;;;;;;;;;21.20;65.80;;;;;;10293502;28;92721;-62
2023/08/01 06:01:51;;;;;;;;;;;21.20;65.80;;;;;;10293596;28;94529;-63
2023/08/01 06:06:53;;;;;;;;;;;21.20;65.80;;;;;;10292575;28;93059;-63
2023/08/01 06:11:55;;;;;;;;;;;21.20;65.80;;;;;;10290568;28;95850;-64
2023/08/01 06:16:57;;;;;;;;;;;21.20;65.80;;;;;;10258449;28;93610;-63
2023/08/01 06:22:00;;;;;;;;;;;21.20;65.90;;;;;;10292489;28;94070;-63
2023/08/01 06:27:01;;;;;;;;;;;21.20;65.90;;;;;;10292875;28;94544;-63
2023/08/01 06:32:03;;;;;;;;;;;21.20;65.90;;;;;;10291112;28;93563;-63
2023/08/01 06:37:05;;;;;;;;;;;21.20;65.90;;;;;;10291839;28;93460;-63
2023/08/01 06:42:07;;;;;;;;;;;21.20;65.80;;;;;;10291601;28;93258;-63
2023/08/01 06:47:09;;;;;;;;;;;21.30;65.90;;;;;;10292363;28;93899;-63
2023/08/01 06:52:11;;;;;;;;;;;21.30;65.90;;;;;;10293975;28;94535;-63
2023/08/01 06:57:13;;;;;;;;;;;21.30;65.90;;;;;;10290573;28;94049;-63
2023/08/01 07:02:15;;;;;;;;;;;21.30;65.90;;;;;;10288491;28;95841;-63
2023/08/01 07:07:17;;;;;;;;;;;21.30;65.90;;;;;;10290935;28;93623;-63
2023/08/01 07:12:19;;;;;;;;;;;21.30;65.90;;;;;;10273445;28;93450;-64
2023/08/01 07:17:20;;;;;;;;;;;21.30;65.90;;;;;;10291392;28;94348;-63
2023/08/01 07:22:22;;;;;;;;;;;21.30;65.90;;;;;;10292093;28;93793;-64
2023/08/01 07:27:24;;;;;;;;;;;21.30;65.90;;;;;;10273817;28;94445;-64
2023/08/01 07:32:26;;;;;;;;;;;21.40;65.90;;;;;;10290197;28;95277;-63
2023/08/01 07:37:28;;;;;;;;;;;21.40;65.70;;;;;;10290505;28;93657;-63
2023/08/01 07:42:30;;;;;;;;;;;21.40;65.90;;;;;;10291208;28;94588;-63
2023/08/01 07:47:32;;;;;;;;;;;21.40;65.90;;;;;;10289949;28;92802;-63
2023/08/01 07:52:34;;;;;;;;;;;21.40;65.90;;;;;;10288117;28;96920;-64
2023/08/01 07:57:35;;;;;;;;;;;21.40;65.90;;;;;;10272440;28;93705;-63
2023/08/01 08:02:37;;;;;;;;;;;21.40;65.90;;;;;;10289534;28;93719;-63
2023/08/01 08:07:39;;;;;;;;;;;21.40;65.90;;;;;;10272494;28;93324;-63
2023/08/01 08:12:41;;;;;;;;;;;21.40;65.90;;;;;;10289498;28;94268;-63
2023/08/01 08:17:43;;;;;;;;;;;21.40;65.90;;;;;;10288588;28;93507;-63
2023/08/01 08:22:44;;;;;;;;;;;21.40;65.90;;;;;;10289532;28;93550;-63
2023/08/01 08:27:48;;;;;;;;;;;21.40;65.90;;;;;;10290517;28;93678;-63
2023/08/01 08:32:50;;;;;;;;;;;21.40;65.90;;;;;;10289800;28;93999;-64
2023/08/01 08:37:52;;;;;;;;;;;21.40;65.90;;;;;;10289237;28;93399;-63
2023/08/01 08:42:54;;;;;;;;;;;21.40;65.90;;;;;;10285585;28;95801;-63
2023/08/01 08:47:58;;;;;;;;;;;21.40;65.90;;;;;;10289159;28;93330;-63
2023/08/01 08:53:00;;;;;;;;;;;21.40;65.90;;;;;;10270687;28;93448;-63
2023/08/01 08:58:03;;;;;;;;;;;21.40;66.00;;;;;;10287939;28;93450;-64
2023/08/01 09:03:05;;;;;;;;;;;21.30;65.90;;;;;;10288406;28;94358;-63
2023/08/01 09:08:10;;;;;;;;;;;21.40;66.00;;;;;;10288319;28;94463;-63
2023/08/01 09:13:11;;;;;;;;;;;21.40;66.00;;;;;;10288538;28;94222;-63
2023/08/01 09:18:13;;;;;;;;;;;21.40;66.00;;;;;;10291170;28;92709;-63
2023/08/01 09:23:16;;;;;;;;;;;21.40;66.00;;;;;;10294361;28;93516;-63
2023/08/01 09:28:19;;;;;;;;;;;21.40;66.00;;;;;;10294535;28;94439;-63
2023/08/01 09:33:21;;;;;;;;;;;21.30;66.00;;;;;;10291548;28;95881;-63
2023/08/01 09:38:24;;;;;;;;;;;21.30;66.00;;;;;;10294753;28;94460;-63
2023/08/01 09:43:32;;;;;;;;;;;21.30;66.00;;;;;;10294196;28;93397;-63
2023/08/01 09:48:34;;;;;;;;;;;21.30;66.00;;;;;;10293620;28;93538;-63
2023/08/01 09:53:46;;;;;;;;;;;21.30;66.10;;;;;;10276408;28;94441;-63
2023/08/01 09:58:48;;;;;;;;;;;21.30;66.10;;;;;;10293265;28;93424;-64
2023/08/01 10:03:50;;;;;;;;;;;21.20;66.10;;;;;;10294066;28;93521;-64
2023/08/01 10:08:52;;;;;;;;;;;21.20;66.20;;;;;;10277334;28;92787;-63
2023/08/01 10:13:54;;;;;;;;;;;21.20;66.20;;;;;;10294144;28;94692;-63
2023/08/01 10:18:56;;;;;;;;;;;21.30;66.30;;;;;;10292492;28;93412;-64
2023/08/01 10:23:58;;;;;;;;;;;21.20;66.20;;;;;;10290445;28;95929;-61
2023/08/01 10:29:02;;;;;;;;;;;21.20;66.20;;;;;;10292269;28;93466;-60
2023/08/01 10:34:12;;;;;;;;;;;21.30;66.30;;;;;;10292396;28;93489;-60
2023/08/01 10:39:20;;;;;;;;;;;21.30;66.20;;;;;;10275053;28;95086;-60
2023/08/01 10:44:22;;;;;;;;;;;21.40;66.30;;;;;;10292075;28;94153;-60
2023/08/01 10:49:37;;;;;;;;;;;21.40;66.20;;;;;;10292237;28;94501;-61
2023/08/01 10:54:40;;;;;;;;;;;21.40;66.20;;;;;;10293075;28;94537;-60
2023/08/01 10:59:42;;;;;;;;;;;21.40;66.30;;;;;;10292606;28;92882;-60
2023/08/01 11:04:54;;;;;;;;;;;21.50;66.20;;;;;;10291662;28;93244;-60
2023/08/01 11:10:13;;;;;;;;;;;21.50;66.20;;;;;;10291679;28;93898;-60
2023/08/01 11:15:15;;;;;;;;;;;21.60;66.10;;;;;;10288955;28;96888;-60
2023/08/01 11:20:18;;;;;;;;;;;21.60;66.00;;;;;;10291192;28;93657;-60
2023/08/01 11:25:30;;;;;;;;;;;21.60;66.00;;;;;;10291114;28;94666;-61
2023/08/01 11:30:32;;;;;;;;;;;21.60;65.90;;;;;;10291534;28;94482;-60
2023/08/01 11:35:34;;;;;;;;;;;21.60;65.80;;;;;;10290666;28;92921;-61
2023/08/01 11:40:36;;;;;;;;;;;21.70;65.80;;;;;;10290290;28;93793;-60
2023/08/01 11:45:47;;;;;;;;;;;21.70;65.70;;;;;;10292847;28;94445;-60
2023/08/01 11:50:49;;;;;;;;;;;21.70;65.80;;;;;;10292034;28;92722;-60
2023/08/01 11:55:52;;;;;;;;;;;21.70;65.60;;;;;;10273043;28;93422;-60
2023/08/01 12:01:08;;;;;;;;;;;21.70;65.60;;;;;;10290719;28;94380;-61
2023/08/01 12:06:11;;;;;;;;;;;21.80;65.60;;;;;;10287594;28;96524;-60
2023/08/01 12:11:23;;;;;;;;;;;21.80;65.50;;;;;;10290246;28;93562;-60
2023/08/01 12:16:25;;;;;;;;;;;21.80;65.50;;;;;;10289892;28;93492;-60
2023/08/01 12:21:27;;;;;;;;;;;21.80;65.50;;;;;;10272217;28;94550;-60
2023/08/01 12:26:29;;;;;;;;;;;21.80;65.60;;;;;;10272018;28;93484;-61
2023/08/01 12:31:31;;;;;;;;;;;21.80;65.50;;;;;;10288811;28;93553;-60
2023/08/01 12:36:33;;;;;;;;;;;21.70;65.40;;;;;;10289277;28;93331;-60
2023/08/01 12:41:35;;;;;;;;;;;21.70;65.40;;;;;;10290041;28;93258;-60
2023/08/01 12:46:37;;;;;;;;;;;21.70;65.40;;;;;;10289363;28;94613;-60
2023/08/01 12:51:39;;;;;;;;;;;21.70;65.40;;;;;;10288912;28;93468;-60
2023/08/01 12:56:41;;;;;;;;;;;21.70;65.40;;;;;;10293389;28;95793;-61
2023/08/01 13:01:43;;;;;;;;;;;21.70;65.50;;;;;;10296102;28;93451;-60
2023/08/01 13:06:45;;;;;;;;;;;21.70;65.60;;;;;;10278204;28;94450;-60
2023/08/01 13:11:47;;;;;;;;;;;21.70;65.60;;;;;;10295056;28;93515;-60
2023/08/01 13:16:48;;;;;;;;;;;21.70;65.60;;;;;;10295446;28;93427;-61
2023/08/01 13:21:50;;;;;;;;;;;21.60;65.60;;;;;;10294873;28;93515;-60
2023/08/01 13:26:52;;;;;;;;;;;21.60;65.70;;;;;;10294916;28;92518;-61
2023/08/01 13:31:54;;;;;;;;;;;21.60;65.70;;;;;;10295314;28;92756;-60
2023/08/01 13:36:56;;;;;;;;;;;21.60;65.70;;;;;;10294881;28;93712;-60
2023/08/01 13:41:58;;;;;;;;;;;21.60;65.80;;;;;;10293965;28;93424;-61
2023/08/01 13:47:00;;;;;;;;;;;21.60;65.90;;;;;;10291486;28;96924;-60
2023/08/01 13:52:03;;;;;;;;;;;21.60;65.80;;;;;;10293045;28;93698;-61
2023/08/01 13:57:05;;;;;;;;;;;21.60;65.80;;;;;;10293670;28;94441;-60
2023/08/01 14:02:06;;;;;;;;;;;21.60;65.90;;;;;;10293678;28;94418;-63
2023/08/01 14:07:11;;;;;;;;;;;21.60;65.90;;;;;;10294306;28;94486;-63
2023/08/01 14:12:12;;;;;;;;;;;21.60;65.90;;;;;;10293846;28;94480;-64
2023/08/01 14:17:14;;;;;;;;;;;21.60;65.90;;;;;;10295017;28;94415;-63
2023/08/01 14:22:16;;;;;;;;;;;21.60;65.90;;;;;;10294464;28;92730;-63
2023/08/01 14:27:18;;;;;;;;;;;21.50;65.70;;;;;;10292323;28;94117;-63
2023/08/01 14:32:19;;;;;;;;;;;21.50;65.70;;;;;;10293352;28;93497;-63
2023/08/01 14:37:23;;;;;;;;;;;21.60;65.70;;;;;;10290012;28;96349;-63
2023/08/01 14:42:26;;;;;;;;;;;21.60;65.70;;;;;;10292917;28;94333;-63
2023/08/01 14:47:29;;;;;;;;;;;21.60;65.80;;;;;;10291612;28;93496;-63
2023/08/01 14:52:31;;;;;;;;;;;21.50;65.80;;;;;;10291660;28;93529;-63
2023/08/01 14:57:33;;;;;;;;;;;21.50;66.80;;;;;;10292169;28;93453;-63
2023/08/01 15:02:35;;;;;;;;;;;21.50;65.90;;;;;;10291506;28;94407;-63
2023/08/01 15:07:36;;;;;;;;;;;21.50;66.00;;;;;;10292004;28;95031;-63
2023/08/01 15:12:41;;;;;;;;;;;21.60;66.00;;;;;;10292832;28;93904;-63
2023/08/01 15:17:43;;;;;;;;;;;21.50;66.00;;;;;;10290208;28;95676;-63
2023/08/01 15:22:45;;;;;;;;;;;21.60;66.10;;;;;;10290891;28;94262;-63
2023/08/01 15:27:46;;;;;;;;;;;21.60;66.10;;;;;;10270715;28;95793;-63
2023/08/01 15:32:48;;;;;;;;;;;21.60;66.10;;;;;;10291025;28;94419;-63
2023/08/01 15:37:50;;;;;;;;;;;21.60;66.10;;;;;;10290676;28;94640;-64
2023/08/01 15:42:52;;;;;;;;;;;21.60;66.20;;;;;;10290408;28;93717;-63
2023/08/01 15:47:54;;;;;;;;;;;21.60;66.30;;;;;;10272297;28;94112;-64
2023/08/01 15:52:56;;;;;;;;;;;21.60;66.20;;;;;;10290360;28;93707;-63
2023/08/01 15:57:58;;;;;;;;;;;21.60;66.20;;;;;;10272394;28;92507;-63
2023/08/01 16:02:59;;;;;;;;;;;21.60;66.30;;;;;;10290938;28;92714;-63
2023/08/01 16:08:01;;;;;;;;;;;21.60;66.20;;;;;;10289136;28;93541;-63
2023/08/01 16:13:03;;;;;;;;;;;21.60;66.30;;;;;;10290111;28;94588;-63
2023/08/01 16:18:05;;;;;;;;;;;21.60;66.20;;;;;;10288482;28;96809;-63
2023/08/01 16:23:06;;;;;;;;;;;21.60;66.30;;;;;;10272798;28;93494;-64
2023/08/01 16:28:08;;;;;;;;;;;21.60;66.10;;;;;;10294342;28;93620;-63
2023/08/01 16:33:11;;;;;;;;;;;21.60;66.20;;;;;;10279673;28;93355;-63
2023/08/01 16:38:13;;;;;;;;;;;21.60;66.20;;;;;;10278323;28;94468;-63
2023/08/01 16:43:15;;;;;;;;;;;21.70;66.20;;;;;;10279206;28;94499;-64
2023/08/01 16:48:17;;;;;;;;;;;21.70;66.20;;;;;;10295262;28;94599;-63
2023/08/01 16:53:19;;;;;;;;;;;21.70;66.20;;;;;;10277763;28;93963;-63
2023/08/01 16:58:21;;;;;;;;;;;21.70;66.20;;;;;;10292672;28;93504;-61
2023/08/01 17:03:23;;;;;;;;;;;21.70;66.20;;;;;;10276804;28;94454;-60
2023/08/01 17:08:25;;;;;;;;;;;21.60;66.70;;;;;;10292296;28;96919;-60
2023/08/01 17:13:27;;;;;;;;;;;21.70;67.70;;;;;;10260940;28;96998;-60
2023/08/01 17:18:29;;;;;;;;;;;21.80;67.70;;;;;;10294910;28;94078;-60
2023/08/01 17:23:31;;;;;;;;;;;21.80;67.50;;;;;;10293882;28;92509;-60
2023/08/01 17:28:33;;;;;;;;;;;21.80;67.60;;;;;;10276032;28;93515;-60
2023/08/01 17:33:35;;;;;;;;;;;21.90;67.50;;;;;;10292525;28;93497;-61
2023/08/01 17:38:39;;;;;;;;;;;21.90;67.60;;;;;;10292022;28;94449;-60
2023/08/01 17:43:41;;;;;;;;;;;21.90;67.70;;;;;;10293516;28;93714;-61
2023/08/01 17:48:42;;;;;;;;;;;22.00;67.70;;;;;;10291112;28;94277;-61
2023/08/01 17:53:45;;;;;;;;;;;22.00;67.30;;;;;;10274814;28;94019;-61
2023/08/01 17:58:47;;;;;;;;;;;22.00;67.10;;;;;;10289343;28;96844;-61
2023/08/01 18:03:48;;;;;;;;;;;22.00;67.00;;;;;;10291395;28;93586;-61
2023/08/01 18:08:50;;;;;;;;;;;21.90;66.10;;;;;;10293421;28;93772;-61
2023/08/01 18:13:52;;;;;;;;;;;21.80;66.00;;;;;;10291625;28;94422;-60
2023/08/01 18:18:54;;;;;;;;;;;21.60;66.50;;;;;;10291404;28;94782;-61
2023/08/01 18:23:56;;;;;;;;;;;21.50;66.70;;;;;;10291293;28;93463;-60
2023/08/01 18:28:58;;;;;;;;;;;21.40;66.90;;;;;;10291361;28;92529;-61
2023/08/01 18:34:00;;;;;;;;;;;21.30;67.00;;;;;;10292118;28;92715;-60
2023/08/01 18:39:02;;;;;;;;;;;21.20;67.20;;;;;;10291190;28;93593;-61
2023/08/01 18:44:03;;;;;;;;;;;21.10;66.60;;;;;;10256891;28;94483;-60
2023/08/01 18:49:05;;;;;;;;;;;21.00;66.40;;;;;;10284957;28;96854;-60
2023/08/01 18:54:08;;;;;;;;;;;21.00;66.80;;;;;;10271644;28;94690;-60
2023/08/01 18:59:10;;;;;;;;;;;20.90;66.60;;;;;;10290121;28;94563;-61
2023/08/01 19:04:11;;;;;;;;;;;21.00;67.40;;;;;;10290708;28;93424;-62
2023/08/01 19:09:13;;;;;;;;;;;21.00;68.30;;;;;;10272856;28;95388;-61
2023/08/01 19:14:22;;;;;;;;;;;21.20;69.00;;;;;;10273521;28;93242;-65
2023/08/01 19:19:24;;;;;;;;;;;21.30;68.10;;;;;;10290122;28;94457;-61
2023/08/01 19:24:26;;;;;;;;;;;21.30;67.80;;;;;;10290396;28;92569;-62
2023/08/01 19:29:28;;;;;;;;;;;21.40;67.70;;;;;;10289518;28;93722;-62
2023/08/01 19:34:30;;;;;;;;;;;21.40;67.60;;;;;;10288956;28;92546;-62
2023/08/01 19:39:31;;;;;;;;;;;21.50;67.60;;;;;;10268533;28;96827;-65
2023/08/01 19:44:34;;;;;;;;;;;21.50;67.60;;;;;;10288719;28;93483;-65
2023/08/01 19:49:36;;;;;;;;;;;21.50;67.50;;;;;;10287143;28;93944;-62
2023/08/01 19:54:39;;;;;;;;;;;21.60;67.50;;;;;;10288811;28;94463;-65
2023/08/01 19:59:41;;;;;;;;;;;21.60;67.50;;;;;;10288232;28;93689;-61
2023/08/01 20:04:43;;;;;;;;;;;21.60;67.40;;;;;;10281546;28;94600;-60
2023/08/01 20:09:45;;;;;;;;;;;21.60;67.70;;;;;;10284700;28;92803;-62
2023/08/01 20:14:47;;;;;;;;;;;21.60;67.40;;;;;;10295709;28;92690;-66
2023/08/01 20:19:48;;;;;;;;;;;21.60;67.50;;;;;;10297802;28;94421;-65
2023/08/01 20:24:50;;;;;;;;;;;21.60;67.50;;;;;;10274763;28;93802;-64
2023/08/01 20:29:52;;;;;;;;;;;21.70;67.50;;;;;;10265727;28;96168;-62
2023/08/01 20:34:54;;;;;;;;;;;21.70;67.50;;;;;;10286510;28;93754;-65
2023/08/01 20:39:56;;;;;;;;;;;21.70;67.50;;;;;;10285872;28;93474;-65
2023/08/01 20:44:58;;;;;;;;;;;21.70;67.40;;;;;;10286814;28;93531;-64
2023/08/01 20:50:00;;;;;;;;;;;21.70;67.50;;;;;;10269960;28;93520;-65
2023/08/01 20:55:03;;;;;;;;;;;21.70;67.40;;;;;;10269183;28;93588;-64
2023/08/01 21:00:07;;;;;;;;;;;21.70;67.30;;;;;;10287316;28;94614;-64
2023/08/01 21:05:09;;;;;;;;;;;21.70;67.40;;;;;;10286967;28;93885;-65
2023/08/01 21:10:11;;;;;;;;;;;21.70;67.30;;;;;;10286991;28;94617;-61
2023/08/01 21:15:14;;;;;;;;;;;21.70;67.20;;;;;;10273189;28;93439;-62
2023/08/01 21:20:16;;;;;;;;;;;21.70;67.10;;;;;;10290522;28;96169;-62
2023/08/01 21:25:18;;;;;;;;;;;21.60;67.00;;;;;;10292545;28;94161;-60
2023/08/01 21:30:20;;;;;;;;;;;21.60;67.00;;;;;;10275973;28;94601;-61
2023/08/01 21:35:22;;;;;;;;;;;21.60;67.00;;;;;;10292734;28;93377;-61
2023/08/01 21:40:23;;;;;;;;;;;21.60;66.90;;;;;;10292732;28;94478;-61
2023/08/01 21:45:26;;;;;;;;;;;21.60;66.70;;;;;;10291666;28;94435;-61
2023/08/01 21:50:27;;;;;;;;;;;21.60;66.90;;;;;;10274402;28;94420;-61
2023/08/01 21:55:29;;;;;;;;;;;21.60;66.80;;;;;;10274542;28;92741;-61
2023/08/01 22:00:31;;;;;;;;;;;21.60;66.70;;;;;;10292090;28;93638;-61
2023/08/01 22:05:33;;;;;;;;;;;21.60;66.70;;;;;;10291921;28;94441;-61
2023/08/01 22:10:35;;;;;;;;;;;21.60;66.70;;;;;;10289553;28;97004;-60
2023/08/01 22:15:36;;;;;;;;;;;21.60;66.60;;;;;;10292386;28;92960;-60
2023/08/01 22:20:38;;;;;;;;;;;21.60;66.50;;;;;;10273429;28;93499;-60
2023/08/01 22:25:40;;;;;;;;;;;21.60;66.50;;;;;;10289955;28;94495;-60
2023/08/01 22:30:42;;;;;;;;;;;21.60;66.50;;;;;;10290746;28;94030;-60
2023/08/01 22:35:44;;;;;;;;;;;21.60;66.50;;;;;;10291142;28;94485;-60
2023/08/01 22:40:45;;;;;;;;;;;21.60;66.40;;;;;;10273102;28;94451;-63
2023/08/01 22:45:53;;;;;;;;;;;21.60;66.40;;;;;;10291581;28;92748;-60
2023/08/01 22:50:55;;;;;;;;;;;21.60;66.30;;;;;;10289359;28;93485;-60
2023/08/01 22:55:57;;;;;;;;;;;21.60;66.40;;;;;;10273966;28;94383;-60
2023/08/01 23:00:59;;;;;;;;;;;21.60;66.30;;;;;;10270241;28;95843;-60
2023/08/01 23:06:01;;;;;;;;;;;21.60;66.30;;;;;;10290490;28;92750;-60
2023/08/01 23:11:03;;;;;;;;;;;21.60;67.20;;;;;;10290968;28;93460;-64
2023/08/01 23:16:05;;;;;;;;;;;21.60;66.20;;;;;;10272831;28;93455;-63
2023/08/01 23:21:06;;;;;;;;;;;21.60;66.10;;;;;;10288894;28;93802;-60
2023/08/01 23:26:09;;;;;;;;;;;21.60;66.10;;;;;;10289441;28;94453;-61
2023/08/01 23:31:11;;;;;;;;;;;21.60;66.10;;;;;;10288638;28;93424;-61
2023/08/01 23:36:13;;;;;;;;;;;21.60;66.10;;;;;;10288921;28;92897;-61
2023/08/01 23:41:15;;;;;;;;;;;21.60;66.10;;;;;;10288821;28;94630;-63
2023/08/01 23:46:20;;;;;;;;;;;21.60;66.10;;;;;;10288332;28;93493;-65
2023/08/01 23:51:22;;;;;;;;;;;21.60;66.00;;;;;;10267576;28;95197;-64
2023/08/01 23:56:24;;;;;;;;;;;21.60;66.00;;;;;;10324008;28;94371;-65
